Time;durP1;ratioP1;P1;durP2;ratioP2;P2;SDS_P1;SDS_P2;PMS_P1;PMS_P2;Temp;Humidity;BMP_temperature;BMP_pressure;BME280_temperature;BME280_humidity;BME280_pressure;Samples;Min_cycle;Max_cycle;Signal;HPM_P1;HPM_P2
2021/09/27 00:02:13;;;;;;;16.65;11.30;;;17.50;93.30;;;;;;5013002;28;20034;-77
2021/09/27 00:04:39;;;;;;;12.93;10.27;;;17.50;93.30;;;;;;5012723;28;20037;-77
2021/09/27 00:07:04;;;;;;;16.95;11.40;;;17.40;93.20;;;;;;5014070;28;20034;-76
2021/09/27 00:09:33;;;;;;;17.92;11.57;;;17.40;93.30;;;;;;5013015;28;20034;-77
2021/09/27 00:12:03;;;;;;;13.77;10.88;;;17.40;93.30;;;;;;5012783;28;20041;-76
2021/09/27 00:14:29;;;;;;;18.63;12.32;;;17.40;93.30;;;;;;5012880;28;20037;-77
2021/09/27 00:16:55;;;;;;;13.82;10.70;;;17.40;93.50;;;;;;5014225;28;20029;-77
2021/09/27 00:19:23;;;;;;;15.50;11.75;;;17.40;93.40;;;;;;5013978;28;20108;-77
2021/09/27 00:21:50;;;;;;;16.13;12.82;;;17.40;93.80;;;;;;5012992;28;20381;-77
2021/09/27 00:24:16;;;;;;;18.45;12.70;;;17.40;93.50;;;;;;5014283;28;20029;-76
2021/09/27 00:26:42;;;;;;;14.38;11.70;;;17.40;93.50;;;;;;5012808;28;20041;-77
2021/09/27 00:29:08;;;;;;;15.75;12.57;;;17.30;93.60;;;;;;5028825;28;20056;-77
2021/09/27 00:31:34;;;;;;;15.88;11.80;;;17.30;93.50;;;;;;5014163;28;20038;-76
2021/09/27 00:33:59;;;;;;;14.30;11.07;;;17.30;93.50;;;;;;5009948;28;20033;-76
2021/09/27 00:36:25;;;;;;;14.85;10.73;;;17.30;93.50;;;;;;5009017;28;20486;-78
2021/09/27 00:38:51;;;;;;;20.20;11.80;;;17.30;93.50;;;;;;4993839;28;20478;-76
2021/09/27 00:41:19;;;;;;;16.77;13.13;;;17.20;93.60;;;;;;4993715;28;20043;-77
2021/09/27 00:43:46;;;;;;;17.08;12.13;;;17.20;93.60;;;;;;4994180;28;20485;-77
2021/09/27 00:46:17;;;;;;;18.92;12.93;;;17.20;93.70;;;;;;4994193;28;20031;-77
2021/09/27 00:48:43;;;;;;;19.38;12.02;;;17.20;93.60;;;;;;4994010;28;20110;-77
2021/09/27 00:51:13;;;;;;;17.55;12.07;;;17.10;93.90;;;;;;4995888;28;20073;-77
2021/09/27 00:53:57;;;;;;;17.42;12.90;;;17.10;93.70;;;;;;5007919;28;20037;-76
2021/09/27 00:56:43;;;;;;;;;;;17.10;93.70;;;;;;4994127;28;20387;-77
2021/09/27 00:59:10;;;;;;;14.93;10.70;;;17.10;93.90;;;;;;4993588;28;19906;-76
2021/09/27 01:01:36;;;;;;;15.65;10.45;;;17.00;93.70;;;;;;5012244;28;20113;-75
2021/09/27 01:04:03;;;;;;;15.25;11.68;;;17.00;93.80;;;;;;5000277;28;20422;-76
2021/09/27 01:06:31;;;;;;;16.05;11.20;;;17.00;93.80;;;;;;4992529;28;20025;-77
2021/09/27 01:09:22;;;;;;;15.73;10.65;;;17.00;93.80;;;;;;4993611;28;20019;-77
2021/09/27 01:12:19;;;;;;;19.23;11.73;;;17.00;93.80;;;;;;4993491;28;20536;-77
2021/09/27 01:14:57;;;;;;;14.55;10.68;;;17.00;93.90;;;;;;5008553;28;20022;-77
2021/09/27 01:17:46;;;;;;;15.10;10.80;;;16.90;93.90;;;;;;5020411;28;20026;-73
2021/09/27 01:20:38;;;;;;;16.27;10.80;;;16.90;93.90;;;;;;5013170;28;20098;-74
2021/09/27 01:23:42;;;;;;;16.92;10.73;;;16.90;93.90;;;;;;5013625;28;20121;-72
2021/09/27 01:26:38;;;;;;;14.48;10.70;;;16.90;93.90;;;;;;5024135;28;20049;-74
2021/09/27 01:29:45;;;;;;;13.75;10.27;;;16.80;94.00;;;;;;5017058;28;20025;-73
2021/09/27 01:32:13;;;;;;;19.67;11.00;;;16.80;93.90;;;;;;5022985;28;20046;-76
2021/09/27 01:34:59;;;;;;;15.05;11.05;;;16.80;93.90;;;;;;5015559;28;20021;-77
2021/09/27 01:37:59;;;;;;;15.02;11.60;;;16.80;94.00;;;;;;5017258;28;20160;-77
2021/09/27 01:40:34;;;;;;;19.30;10.75;;;16.80;94.00;;;;;;5017278;28;20045;-78
2021/09/27 01:43:11;;;;;;;16.40;10.50;;;16.80;94.00;;;;;;5032073;28;20531;-76
2021/09/27 01:45:58;;;;;;;17.45;11.45;;;16.80;94.10;;;;;;5017049;28;20372;-77
2021/09/27 01:48:44;;;;;;;16.88;11.32;;;16.70;94.10;;;;;;5031262;28;20029;-76
2021/09/27 01:51:29;;;;;;;15.60;10.82;;;16.70;94.10;;;;;;5018159;28;20165;-76
2021/09/27 01:54:04;;;;;;;14.02;10.18;;;16.70;94.10;;;;;;5012945;28;20372;-76
2021/09/27 01:56:39;;;;;;;15.27;10.52;;;16.70;94.10;;;;;;4996936;28;20045;-77
2021/09/27 01:59:33;;;;;;;16.08;11.18;;;16.70;94.10;;;;;;5005523;28;20034;-76
2021/09/27 02:02:28;;;;;;;18.23;12.63;;;16.70;94.20;;;;;;5015269;28;20038;-74
2021/09/27 02:05:00;;;;;;;17.65;11.13;;;16.70;94.20;;;;;;5031809;28;20034;-73
2021/09/27 02:07:30;;;;;;;15.63;11.27;;;16.60;94.20;;;;;;5016221;28;20026;-73
2021/09/27 02:10:06;;;;;;;19.30;11.82;;;16.60;94.20;;;;;;5031757;28;20480;-73
2021/09/27 02:12:38;;;;;;;15.25;11.82;;;16.60;94.30;;;;;;5016349;28;20030;-73
2021/09/27 02:15:16;;;;;;;18.15;11.80;;;16.60;94.30;;;;;;5016243;28;20470;-73
2021/09/27 02:18:05;;;;;;;20.17;12.18;;;16.50;94.30;;;;;;5016114;28;20053;-73
2021/09/27 02:20:39;;;;;;;21.70;12.48;;;16.60;94.40;;;;;;5030719;28;20045;-74
2021/09/27 02:23:10;;;;;;;15.15;11.18;;;16.50;94.40;;;;;;5016106;28;20053;-73
2021/09/27 02:25:39;;;;;;;15.50;11.32;;;16.50;94.40;;;;;;5015862;28;20033;-73
2021/09/27 02:28:10;;;;;;;15.70;10.95;;;16.50;94.40;;;;;;5014689;28;20018;-73
2021/09/27 02:31:01;;;;;;;15.32;11.38;;;16.50;94.40;;;;;;5015722;28;20533;-73
2021/09/27 02:33:44;;;;;;;18.92;12.25;;;16.50;94.50;;;;;;5030947;28;20026;-73
2021/09/27 02:36:23;;;;;;;15.07;11.30;;;16.50;94.50;;;;;;5030664;28;20033;-73
2021/09/27 02:39:22;;;;;;;16.63;11.80;;;16.40;94.50;;;;;;5015017;28;20105;-73
2021/09/27 02:42:10;;;;;;;17.13;11.77;;;16.40;94.50;;;;;;5030211;28;20042;-74
2021/09/27 02:44:36;;;;;;;15.85;11.73;;;16.40;94.50;;;;;;5030882;28;20455;-73
2021/09/27 02:47:07;;;;;;;16.23;12.38;;;16.40;94.50;;;;;;5014290;28;20030;-74
2021/09/27 02:49:47;;;;;;;16.65;12.25;;;16.40;94.60;;;;;;5015605;28;20076;-74
2021/09/27 02:52:18;;;;;;;17.60;12.35;;;16.30;94.60;;;;;;5015579;28;20045;-73
2021/09/27 02:54:58;;;;;;;16.92;11.98;;;16.40;94.70;;;;;;5015442;28;20034;-74
2021/09/27 02:57:48;;;;;;;16.60;11.98;;;16.30;94.70;;;;;;5030720;28;20389;-73
2021/09/27 03:00:31;;;;;;;17.88;12.45;;;16.30;94.70;;;;;;5015324;28;20369;-73
2021/09/27 03:03:18;;;;;;;18.15;13.05;;;16.30;94.80;;;;;;5015543;28;20034;-73
2021/09/27 03:06:18;;;;;;;19.88;13.90;;;16.30;94.80;;;;;;5015306;28;20046;-74
2021/09/27 03:09:05;;;;;;;19.88;13.10;;;16.20;94.80;;;;;;5015422;28;20029;-74
2021/09/27 03:12:24;;;;;;;19.05;12.48;;;16.30;94.90;;;;;;5015280;28;20476;-74
2021/09/27 03:14:58;;;;;;;18.13;12.77;;;16.30;94.90;;;;;;5032948;28;20504;-73
2021/09/27 03:17:30;;;;;;;;;;;16.20;94.90;;;;;;5033695;28;20060;-74
2021/09/27 03:19:58;;;;;;;16.35;11.50;;;16.20;94.90;;;;;;5022045;28;20357;-74
2021/09/27 03:22:37;;;;;;;19.10;13.05;;;16.20;94.80;;;;;;5015229;28;20034;-74
2021/09/27 03:25:39;;;;;;;16.13;12.55;;;16.20;94.90;;;;;;5030442;28;20065;-74
2021/09/27 03:28:38;;;;;;;17.98;13.15;;;16.20;94.90;;;;;;5014912;28;20030;-74
2021/09/27 03:31:43;;;;;;;17.60;12.70;;;16.20;95.00;;;;;;5015013;28;20096;-73
2021/09/27 03:34:54;;;;;;;17.75;13.23;;;16.10;95.00;;;;;;5014918;28;20470;-73
2021/09/27 03:37:31;;;;;;;19.98;12.90;;;16.10;95.00;;;;;;5032676;28;20060;-73
2021/09/27 03:40:36;;;;;;;18.60;12.75;;;16.10;95.00;;;;;;5032429;28;20063;-73
2021/09/27 03:43:22;;;;;;;17.25;12.15;;;16.10;95.00;;;;;;5029842;28;20037;-73
2021/09/27 03:46:15;;;;;;;17.10;13.10;;;16.10;95.10;;;;;;5030080;28;20048;-73
2021/09/27 03:48:44;;;;;;;19.27;13.20;;;16.10;95.10;;;;;;5016650;28;20034;-73
2021/09/27 03:51:25;;;;;;;19.40;13.45;;;16.00;95.10;;;;;;5014591;28;20033;-73
2021/09/27 03:53:55;;;;;;;20.35;13.93;;;16.00;95.10;;;;;;5014682;28;20025;-73
2021/09/27 03:56:48;;;;;;;16.63;12.52;;;16.00;95.20;;;;;;5014337;28;20020;-74
2021/09/27 03:59:34;;;;;;;17.15;13.35;;;16.00;95.30;;;;;;5014831;28;20081;-74
2021/09/27 04:02:22;;;;;;;21.92;14.43;;;16.00;95.30;;;;;;5029389;28;20038;-74
2021/09/27 04:05:07;;;;;;;23.55;15.45;;;16.00;95.40;;;;;;5029594;28;20124;-74
2021/09/27 04:07:56;;;;;;;19.50;15.43;;;15.90;95.40;;;;;;5029634;28;20112;-74
2021/09/27 04:10:59;;;;;;;19.40;13.32;;;15.90;95.40;;;;;;5014399;28;20529;-74
2021/09/27 04:13:50;;;;;;;21.10;14.63;;;15.90;95.50;;;;;;5014466;28;20033;-74
2021/09/27 04:16:36;;;;;;;20.20;14.32;;;16.00;95.60;;;;;;5014372;28;20060;-74
2021/09/27 04:19:34;;;;;;;21.50;14.73;;;16.00;95.60;;;;;;5013963;28;20121;-74
2021/09/27 04:22:08;;;;;;;19.77;13.52;;;16.00;95.60;;;;;;5014003;28;20029;-74
2021/09/27 04:24:56;;;;;;;18.73;14.43;;;16.00;95.90;;;;;;5013988;28;20033;-74
2021/09/27 04:27:43;;;;;;;21.08;13.93;;;16.10;95.60;;;;;;5014019;28;20366;-74
2021/09/27 04:30:18;;;;;;;19.77;13.13;;;16.10;95.70;;;;;;5013802;28;20022;-74
2021/09/27 04:33:02;;;;;;;21.33;14.48;;;16.10;95.70;;;;;;5029271;28;20087;-74
2021/09/27 04:35:39;;;;;;;19.73;14.10;;;16.10;95.70;;;;;;5029300;28;20113;-74
2021/09/27 04:38:08;;;;;;;18.95;14.30;;;16.20;95.70;;;;;;5013964;28;20073;-74
2021/09/27 04:41:01;;;;;;;19.65;13.60;;;16.20;95.70;;;;;;5012616;28;20030;-74
2021/09/27 04:44:06;;;;;;;19.73;12.95;;;16.20;95.70;;;;;;5013676;28;20060;-74
2021/09/27 04:46:50;;;;;;;16.75;12.88;;;16.20;95.70;;;;;;5028698;28;20041;-74
2021/09/27 04:49:40;;;;;;;18.50;12.95;;;16.30;95.80;;;;;;5013741;28;20075;-74
2021/09/27 04:52:35;;;;;;;20.08;12.82;;;16.30;95.80;;;;;;5013827;28;20056;-74
2021/09/27 04:55:17;;;;;;;19.58;13.85;;;16.30;95.80;;;;;;5028678;28;20030;-74
2021/09/27 04:58:09;;;;;;;17.33;12.10;;;16.40;95.80;;;;;;5029111;28;20027;-74
2021/09/27 05:00:47;;;;;;;21.90;12.73;;;16.40;95.80;;;;;;5038965;28;20038;-74
2021/09/27 05:03:36;;;;;;;20.83;13.57;;;16.40;95.80;;;;;;5017563;28;20033;-75
2021/09/27 05:06:20;;;;;;;18.00;12.68;;;16.50;95.80;;;;;;5017904;28;20080;-73
2021/09/27 05:09:04;;;;;;;;;;;16.50;95.80;;;;;;5018034;28;20100;-74
2021/09/27 05:12:05;;;;;;;19.05;12.77;;;16.50;95.70;;;;;;5017625;28;19997;-73
2021/09/27 05:14:52;;;;;;;16.13;11.68;;;16.50;95.70;;;;;;5043050;28;20386;-74
2021/09/27 05:17:21;;;;;;;17.27;12.68;;;16.50;95.70;;;;;;5032579;28;20034;-73
2021/09/27 05:20:08;;;;;;;22.92;13.30;;;16.50;95.70;;;;;;5032217;28;20053;-74
2021/09/27 05:22:52;;;;;;;20.15;13.10;;;16.50;95.70;;;;;;5032568;28;20029;-74
2021/09/27 05:25:39;;;;;;;18.45;12.73;;;16.50;95.70;;;;;;5015370;28;20022;-74
2021/09/27 05:28:29;;;;;;;16.85;12.65;;;16.50;95.70;;;;;;5015458;28;20030;-74
2021/09/27 05:31:30;;;;;;;16.48;11.95;;;16.50;95.70;;;;;;5015330;28;20037;-73
2021/09/27 05:34:08;;;;;;;21.45;13.15;;;16.50;95.70;;;;;;5027943;28;20049;-74
2021/09/27 05:37:04;;;;;;;18.63;12.90;;;16.50;95.70;;;;;;5015492;28;20088;-74
2021/09/27 05:39:33;;;;;;;22.73;13.00;;;16.50;95.80;;;;;;5014743;28;20022;-74
2021/09/27 05:42:13;;;;;;;20.90;13.55;;;16.50;95.80;;;;;;5012864;28;20033;-74
2021/09/27 05:44:49;;;;;;;19.70;13.40;;;16.50;95.80;;;;;;5015843;28;20080;-74
2021/09/27 05:47:44;;;;;;;17.80;12.70;;;16.60;95.80;;;;;;5021951;28;20026;-74
2021/09/27 05:50:27;;;;;;;17.95;12.90;;;16.60;95.80;;;;;;5013584;28;20025;-74
2021/09/27 05:52:57;;;;;;;21.63;13.63;;;16.60;95.80;;;;;;5019923;28;20113;-75
2021/09/27 05:55:43;;;;;;;19.48;13.50;;;16.60;95.80;;;;;;5012049;28;20026;-74
2021/09/27 05:58:21;;;;;;;18.00;12.82;;;16.60;95.80;;;;;;5012809;28;20513;-74
2021/09/27 06:01:11;;;;;;;22.20;13.20;;;16.60;95.80;;;;;;5021514;28;20080;-73
2021/09/27 06:03:54;;;;;;;21.55;13.48;;;16.70;95.80;;;;;;5018165;28;20030;-74
2021/09/27 06:06:45;;;;;;;16.52;12.98;;;16.70;95.80;;;;;;5012008;28;20022;-74
2021/09/27 06:09:49;;;;;;;19.85;13.65;;;16.70;95.90;;;;;;5005695;28;20026;-74
2021/09/27 06:12:19;;;;;;;19.15;13.02;;;16.70;95.80;;;;;;4994892;28;20494;-74
2021/09/27 06:14:46;;;;;;;20.83;12.95;;;16.80;95.80;;;;;;5010754;28;20030;-75
2021/09/27 06:17:26;;;;;;;19.25;12.90;;;16.80;95.80;;;;;;4995063;28;20042;-73
2021/09/27 06:20:04;;;;;;;17.50;12.48;;;16.90;95.90;;;;;;5011113;28;20061;-74
2021/09/27 06:22:49;;;;;;;21.77;12.90;;;16.90;95.80;;;;;;4996034;28;20377;-74
2021/09/27 06:25:39;;;;;;;19.08;13.80;;;16.90;95.70;;;;;;4994371;28;20023;-74
2021/09/27 06:28:42;;;;;;;18.05;12.93;;;16.90;95.70;;;;;;4996110;28;20092;-74
2021/09/27 06:31:32;;;;;;;17.77;13.80;;;17.00;95.70;;;;;;4996387;28;20145;-75
2021/09/27 06:34:21;;;;;;;18.55;13.20;;;17.00;95.60;;;;;;5004737;28;20022;-74
2021/09/27 06:36:48;;;;;;;18.98;12.77;;;17.00;95.80;;;;;;5011048;28;20030;-74
2021/09/27 06:39:19;;;;;;;20.60;14.90;;;17.10;95.50;;;;;;5015353;28;20072;-74
2021/09/27 06:41:47;;;;;;;20.15;13.90;;;17.10;95.50;;;;;;5015456;28;20041;-74
2021/09/27 06:44:14;;;;;;;18.98;13.07;;;17.10;95.40;;;;;;5013117;28;20022;-75
2021/09/27 06:46:40;;;;;;;24.08;14.15;;;17.20;95.40;;;;;;5015248;28;20026;-75
2021/09/27 06:49:07;;;;;;;21.38;13.40;;;17.10;95.30;;;;;;5014959;28;20032;-75
2021/09/27 06:51:33;;;;;;;19.35;12.52;;;17.20;95.20;;;;;;5013816;28;20029;-75
2021/09/27 06:53:58;;;;;;;19.48;14.00;;;17.20;95.20;;;;;;5015726;28;20469;-74
2021/09/27 06:56:24;;;;;;;17.45;12.80;;;17.20;95.10;;;;;;5015713;28;20037;-75
2021/09/27 06:58:49;;;;;;;18.30;12.98;;;17.20;95.10;;;;;;4998042;28;20029;-74
2021/09/27 07:01:15;;;;;;;16.67;13.20;;;17.30;95.10;;;;;;5014388;28;20072;-75
2021/09/27 07:03:40;;;;;;;17.58;11.55;;;17.30;95.00;;;;;;5013871;28;20018;-75
2021/09/27 07:06:06;;;;;;;17.55;11.73;;;17.30;95.00;;;;;;5015462;28;20033;-75
2021/09/27 07:08:32;;;;;;;18.02;13.52;;;17.40;94.90;;;;;;4997776;28;20064;-74
2021/09/27 07:10:58;;;;;;;19.70;12.63;;;17.40;94.90;;;;;;5015390;28;20030;-75
2021/09/27 07:13:24;;;;;;;18.33;13.57;;;17.50;94.90;;;;;;5014163;28;20045;-75
2021/09/27 07:15:50;;;;;;;18.00;13.30;;;17.50;94.90;;;;;;4997707;28;20058;-75
2021/09/27 07:18:15;;;;;;;20.23;13.13;;;17.60;94.90;;;;;;5014208;28;20034;-74
2021/09/27 07:20:41;;;;;;;14.27;11.18;;;17.70;94.90;;;;;;5014424;28;20052;-75
2021/09/27 07:23:07;;;;;;;19.80;12.48;;;17.70;94.80;;;;;;5012873;28;20069;-74
2021/09/27 07:25:34;;;;;;;19.38;12.90;;;17.80;94.80;;;;;;5015057;28;20050;-74
2021/09/27 07:28:00;;;;;;;19.70;13.73;;;17.80;94.70;;;;;;5015118;28;20535;-75
2021/09/27 07:30:27;;;;;;;16.10;12.55;;;17.90;94.70;;;;;;5013307;28;20048;-75
2021/09/27 07:32:53;;;;;;;18.95;13.68;;;18.00;94.80;;;;;;5013339;28;20152;-74
2021/09/27 07:35:28;;;;;;;18.02;12.88;;;18.10;94.60;;;;;;5014565;28;20444;-74
2021/09/27 07:37:54;;;;;;;18.00;12.77;;;18.10;94.40;;;;;;5014653;28;20466;-72
2021/09/27 07:40:23;;;;;;;15.25;12.68;;;18.20;94.40;;;;;;5013040;28;20489;-74
2021/09/27 07:42:50;;;;;;;19.02;12.85;;;18.20;94.30;;;;;;5013694;28;20052;-74
2021/09/27 07:45:18;;;;;;;18.90;13.25;;;18.20;94.20;;;;;;5012999;28;20030;-74
2021/09/27 07:47:46;;;;;;;16.95;13.75;;;18.30;94.10;;;;;;5014441;28;20030;-74
2021/09/27 07:50:12;;;;;;;16.90;13.90;;;18.30;94.00;;;;;;5012964;28;20018;-73
2021/09/27 07:52:38;;;;;;;17.40;12.25;;;18.30;94.00;;;;;;5012760;28;20030;-73
2021/09/27 07:55:06;;;;;;;16.85;12.18;;;18.30;93.90;;;;;;5014038;28;20038;-73
2021/09/27 07:57:31;;;;;;;19.00;13.80;;;18.30;93.90;;;;;;5013254;28;20466;-73
2021/09/27 07:59:57;;;;;;;16.17;13.60;;;18.40;93.80;;;;;;5012798;28;20030;-73
2021/09/27 08:02:28;;;;;;;15.90;12.77;;;18.40;93.80;;;;;;4996882;28;20030;-73
2021/09/27 08:04:54;;;;;;;18.15;12.70;;;18.40;93.80;;;;;;5014353;28;20014;-74
2021/09/27 08:07:21;;;;;;;17.50;11.80;;;18.40;93.70;;;;;;5013261;28;20049;-74
2021/09/27 08:09:47;;;;;;;14.88;12.70;;;18.50;93.70;;;;;;5014484;28;20450;-74
2021/09/27 08:12:12;;;;;;;15.52;12.02;;;18.50;93.70;;;;;;5014185;28;20034;-74
2021/09/27 08:14:38;;;;;;;17.33;12.82;;;18.60;93.60;;;;;;5013223;28;20540;-73
2021/09/27 08:17:04;;;;;;;16.65;12.75;;;18.60;93.60;;;;;;4996767;28;20038;-74
2021/09/27 08:19:31;;;;;;;16.77;12.27;;;18.70;93.60;;;;;;5013898;28;20049;-72
2021/09/27 08:21:56;;;;;;;18.10;14.40;;;18.70;93.40;;;;;;5014032;28;20077;-72
2021/09/27 08:24:22;;;;;;;18.67;12.65;;;18.80;93.30;;;;;;5012870;28;20057;-74
2021/09/27 08:26:48;;;;;;;15.40;12.40;;;18.90;93.30;;;;;;5014242;28;20026;-73
2021/09/27 08:29:13;;;;;;;17.35;13.15;;;18.90;93.20;;;;;;5013904;28;20077;-74
2021/09/27 08:31:41;;;;;;;16.60;11.85;;;19.00;93.00;;;;;;5012946;28;20038;-74
2021/09/27 08:34:07;;;;;;;16.20;12.00;;;19.10;93.00;;;;;;5014193;28;20026;-73
2021/09/27 08:36:34;;;;;;;14.38;11.40;;;19.10;92.90;;;;;;5013236;28;20058;-75
2021/09/27 08:39:00;;;;;;;12.98;11.43;;;19.20;92.90;;;;;;5013851;28;20053;-74
2021/09/27 08:41:31;;;;;;;15.48;11.98;;;19.30;92.80;;;;;;4995993;28;20038;-74
2021/09/27 08:44:01;;;;;;;14.35;11.13;;;19.40;92.70;;;;;;5012624;28;20475;-73
2021/09/27 08:46:31;;;;;;;16.02;12.27;;;19.40;92.60;;;;;;5012326;28;20022;-75
2021/09/27 08:49:37;;;;;;;18.38;12.65;;;19.40;92.30;;;;;;5013629;28;20119;-73
2021/09/27 08:52:06;;;;;;;17.65;11.23;;;19.40;92.10;;;;;;5012294;28;20429;-74
2021/09/27 08:54:33;;;;;;;16.60;12.00;;;19.50;92.00;;;;;;5013765;28;20037;-73
2021/09/27 08:57:28;;;;;;;14.70;11.32;;;19.50;91.90;;;;;;5013552;28;20477;-73
2021/09/27 09:00:12;;;;;;;14.93;10.73;;;19.50;91.80;;;;;;5011827;28;20026;-72
2021/09/27 09:03:21;;;;;;;14.05;10.68;;;19.60;91.70;;;;;;5013097;28;20120;-74
2021/09/27 09:06:00;;;;;;;13.60;10.43;;;19.60;91.40;;;;;;5013866;28;20156;-74
2021/09/27 09:08:47;;;;;;;12.52;9.55;;;19.60;91.30;;;;;;5013310;28;20105;-73
2021/09/27 09:11:39;;;;;;;14.52;9.82;;;19.60;91.40;;;;;;5013682;28;20493;-74
2021/09/27 09:14:26;;;;;;;15.32;10.55;;;19.70;91.30;;;;;;5012065;28;20030;-73
2021/09/27 09:16:54;;;;;;;15.20;10.68;;;19.70;91.20;;;;;;5011748;28;20121;-73
2021/09/27 09:19:24;;;;;;;13.80;10.38;;;19.70;91.10;;;;;;5013036;28;20045;-73
2021/09/27 09:21:55;;;;;;;16.08;10.98;;;19.70;91.20;;;;;;5011955;28;20030;-74
2021/09/27 09:24:35;;;;;;;14.07;9.77;;;19.70;91.20;;;;;;5013350;28;20049;-73
2021/09/27 09:27:10;;;;;;;12.95;9.60;;;19.70;91.20;;;;;;5013132;28;20101;-73
2021/09/27 09:29:39;;;;;;;13.10;9.15;;;19.80;91.10;;;;;;5013338;28;20037;-74
2021/09/27 09:32:37;;;;;;;13.00;9.85;;;19.90;91.00;;;;;;5013481;28;20520;-74
2021/09/27 09:35:17;;;;;;;14.50;9.40;;;19.90;90.90;;;;;;5022700;28;20042;-74
2021/09/27 09:37:54;;;;;;;13.02;9.40;;;19.90;90.90;;;;;;5013285;28;20033;-73
2021/09/27 09:40:33;;;;;;;13.65;9.05;;;19.90;90.90;;;;;;5011748;28;20437;-77
2021/09/27 09:43:03;;;;;;;11.88;8.35;;;20.00;90.90;;;;;;5012495;28;20073;-78
2021/09/27 09:45:33;;;;;;;13.45;8.07;;;20.10;90.90;;;;;;5011959;28;20081;-80
2021/09/27 09:48:25;;;;;;;10.43;7.32;;;20.20;90.80;;;;;;5015401;28;20025;-79
2021/09/27 09:50:54;;;;;;;12.32;7.85;;;20.30;90.50;;;;;;5017258;28;20026;-78
2021/09/27 09:53:22;;;;;;;12.93;7.78;;;20.50;90.30;;;;;;5017154;28;20470;-80
2021/09/27 09:55:58;;;;;;;11.20;8.27;;;20.60;89.80;;;;;;5016838;28;20038;-78
2021/09/27 09:58:41;;;;;;;10.95;7.20;;;20.70;89.50;;;;;;5016670;28;20079;-78
2021/09/27 10:01:28;;;;;;;8.90;6.03;;;20.80;89.40;;;;;;5009580;28;20034;-78
2021/09/27 10:04:12;;;;;;;9.30;6.25;;;20.80;89.10;;;;;;4997033;28;20026;-79
2021/09/27 10:06:49;;;;;;;12.10;6.82;;;21.00;88.90;;;;;;4995622;28;20033;-80
2021/09/27 10:09:31;;;;;;;9.20;5.90;;;20.90;88.60;;;;;;4997372;28;20375;-79
2021/09/27 10:12:04;;;;;;;8.88;5.30;;;21.10;88.10;;;;;;4997076;28;20030;-79
2021/09/27 10:14:31;;;;;;;8.15;5.05;;;21.20;87.10;;;;;;4995585;28;20386;-80
2021/09/27 10:17:29;;;;;;;8.68;6.10;;;21.20;85.90;;;;;;5012335;28;20035;-80
2021/09/27 10:19:54;;;;;;;10.07;5.90;;;21.10;85.40;;;;;;4999684;28;20052;-78
2021/09/27 10:22:24;;;;;;;9.57;6.25;;;21.10;85.30;;;;;;5016310;28;20360;-79
2021/09/27 10:24:53;;;;;;;8.68;4.90;;;21.00;85.30;;;;;;5014987;28;20022;-77
2021/09/27 10:27:22;;;;;;;12.60;5.13;;;20.90;85.60;;;;;;5016123;28;20454;-79
2021/09/27 10:29:49;;;;;;;11.13;4.88;;;20.80;85.30;;;;;;5014914;28;20041;-80
2021/09/27 10:32:24;;;;;;;7.80;4.57;;;20.80;85.70;;;;;;5016384;28;20432;-80
2021/09/27 10:34:51;;;;;;;8.95;4.18;;;20.70;85.70;;;;;;5014998;28;20083;-77
2021/09/27 10:37:21;;;;;;;11.80;4.35;;;20.70;85.90;;;;;;5014844;28;20030;-77
2021/09/27 10:39:49;;;;;;;7.07;3.85;;;20.60;85.90;;;;;;5015708;28;20033;-78
2021/09/27 10:42:20;;;;;;;6.10;3.78;;;20.60;85.80;;;;;;4998542;28;20081;-77
2021/09/27 10:44:52;;;;;;;10.18;4.20;;;20.50;85.60;;;;;;5015681;28;20018;-80
2021/09/27 10:47:27;;;;;;;9.80;3.88;;;20.50;85.80;;;;;;5015964;28;20049;-80
2021/09/27 10:50:04;;;;;;;8.15;3.65;;;20.50;85.90;;;;;;5014633;28;20018;-78
2021/09/27 10:52:42;;;;;;;5.85;3.45;;;20.50;85.90;;;;;;5014520;28;20030;-76
2021/09/27 10:55:27;;;;;;;8.70;3.67;;;20.50;86.10;;;;;;5014456;28;20033;-79
2021/09/27 10:58:27;;;;;;;5.78;2.67;;;20.40;86.10;;;;;;5013299;28;20065;-75
2021/09/27 11:00:55;;;;;;;7.85;3.10;;;20.50;86.20;;;;;;5015453;28;20565;-75
2021/09/27 11:03:29;;;;;;;4.90;2.83;;;20.50;86.20;;;;;;5007507;28;20072;-74
2021/09/27 11:06:01;;;;;;;7.20;3.00;;;20.60;86.30;;;;;;5011662;28;20076;-74
2021/09/27 11:08:40;;;;;;;6.93;3.70;;;20.60;86.40;;;;;;5013466;28;20431;-74
2021/09/27 11:11:35;;;;;;;7.05;3.50;;;20.70;86.10;;;;;;5013350;28;20485;-74
2021/09/27 11:14:27;;;;;;;7.88;3.13;;;20.80;86.30;;;;;;5011311;28;20386;-74
2021/09/27 11:16:58;;;;;;;7.32;3.25;;;20.80;86.10;;;;;;5013455;28;20026;-75
2021/09/27 11:19:33;;;;;;;7.75;3.50;;;20.80;85.90;;;;;;5011520;28;20409;-73
2021/09/27 11:22:14;;;;;;;8.38;3.13;;;20.90;86.00;;;;;;5015078;28;20037;-74
2021/09/27 11:24:42;;;;;;;7.47;3.63;;;20.90;85.90;;;;;;5021840;28;20025;-75
2021/09/27 11:27:11;;;;;;;11.75;3.40;;;20.90;85.70;;;;;;5014638;28;20084;-73
2021/09/27 11:29:36;;;;;;;6.43;3.08;;;20.90;85.30;;;;;;5014673;28;20041;-74
2021/09/27 11:32:20;;;;;;;5.57;3.13;;;21.00;85.50;;;;;;5014716;28;20025;-74
2021/09/27 11:34:52;;;;;;;4.70;2.40;;;21.10;85.30;;;;;;5028027;28;20469;-74
2021/09/27 11:37:33;;;;;;;8.07;2.88;;;21.20;84.80;;;;;;5014205;28;20470;-75
2021/09/27 11:40:11;;;;;;;5.38;2.63;;;21.30;84.70;;;;;;5014424;28;20030;-75
2021/09/27 11:42:43;;;;;;;4.95;2.03;;;21.40;84.50;;;;;;5014268;28;20026;-75
2021/09/27 11:45:38;;;;;;;5.55;2.47;;;21.60;84.00;;;;;;5012891;28;20036;-73
2021/09/27 11:48:16;;;;;;;6.75;2.45;;;21.70;82.40;;;;;;5010879;28;20021;-74
2021/09/27 11:51:04;;;;;;;7.22;2.40;;;21.80;82.70;;;;;;5014568;28;20022;-73
2021/09/27 11:53:38;;;;;;;10.02;2.13;;;21.90;82.60;;;;;;5014439;28;20104;-74
2021/09/27 11:56:16;;;;;;;7.72;2.55;;;21.90;81.70;;;;;;5014384;28;20184;-74
2021/09/27 11:59:09;;;;;;;7.82;2.17;;;22.00;80.30;;;;;;5013161;28;20029;-76
2021/09/27 12:02:02;;;;;;;5.20;2.17;;;21.90;79.30;;;;;;5012921;28;20076;-74
2021/09/27 12:04:33;;;;;;;5.32;2.30;;;21.90;78.80;;;;;;5014428;28;20036;-75
2021/09/27 12:07:03;;;;;;;6.22;2.05;;;21.80;78.70;;;;;;5014433;28;20093;-74
2021/09/27 12:09:44;;;;;;;4.95;2.20;;;21.80;78.50;;;;;;5013268;28;20076;-76
2021/09/27 12:12:23;;;;;;;8.30;2.03;;;21.70;77.80;;;;;;5012809;28;20033;-75
2021/09/27 12:14:50;;;;;;;9.38;1.75;;;21.60;78.20;;;;;;5012735;28;20026;-74
2021/09/27 12:17:20;;;;;;;6.82;1.60;;;21.50;78.40;;;;;;5014044;28;20072;-75
2021/09/27 12:19:50;;;;;;;4.38;1.45;;;21.60;78.40;;;;;;5014018;28;20130;-73
2021/09/27 12:22:25;;;;;;;5.20;1.88;;;21.60;78.40;;;;;;5013832;28;20056;-76
2021/09/27 12:24:52;;;;;;;4.65;1.88;;;21.60;78.50;;;;;;5013852;28;20057;-74
2021/09/27 12:27:27;;;;;;;7.03;1.63;;;21.60;78.70;;;;;;5013743;28;20113;-74
2021/09/27 12:30:12;;;;;;;4.78;1.40;;;21.60;78.10;;;;;;5012745;28;20021;-73
2021/09/27 12:32:47;;;;;;;2.85;1.20;;;21.60;77.90;;;;;;5012634;28;20022;-75
2021/09/27 12:35:23;;;;;;;4.88;1.83;;;21.60;77.90;;;;;;5014004;28;20033;-74
2021/09/27 12:37:55;;;;;;;5.65;1.42;;;21.70;78.20;;;;;;5013742;28;20034;-74
2021/09/27 12:40:31;;;;;;;5.82;1.25;;;21.80;78.00;;;;;;5012574;28;20076;-75
2021/09/27 12:43:06;;;;;;;3.30;1.10;;;21.90;77.30;;;;;;5013656;28;20033;-73
2021/09/27 12:45:39;;;;;;;3.75;1.30;;;22.00;76.70;;;;;;5013982;28;20083;-75
2021/09/27 12:48:09;;;;;;;2.47;1.17;;;22.00;76.20;;;;;;5013686;28;20022;-75
2021/09/27 12:50:37;;;;;;;6.70;1.80;;;22.00;75.90;;;;;;5012764;28;20406;-74
2021/09/27 12:53:08;;;;;;;3.65;1.13;;;22.00;75.60;;;;;;5013551;28;20022;-74
2021/09/27 12:55:41;;;;;;;4.35;1.40;;;22.00;76.00;;;;;;5013690;28;20022;-74
2021/09/27 12:58:26;;;;;;;2.55;1.13;;;22.00;76.30;;;;;;5013285;28;20029;-74
2021/09/27 13:00:53;;;;;;;3.22;1.20;;;22.00;76.50;;;;;;5012406;28;20026;-76
2021/09/27 13:03:24;;;;;;;3.55;1.48;;;22.00;76.50;;;;;;5013519;28;20022;-75
2021/09/27 13:05:52;;;;;;;2.65;1.50;;;22.00;76.30;;;;;;5012073;28;20022;-74
2021/09/27 13:08:24;;;;;;;6.07;1.55;;;21.90;76.30;;;;;;5012221;28;20470;-75
2021/09/27 13:10:55;;;;;;;9.02;1.67;;;21.90;76.30;;;;;;5012530;28;20022;-74
2021/09/27 13:13:23;;;;;;;7.30;1.95;;;21.90;76.20;;;;;;5013836;28;20021;-74
2021/09/27 13:16:10;;;;;;;6.00;1.90;;;21.80;76.70;;;;;;5013298;28;20040;-75
2021/09/27 13:18:37;;;;;;;5.38;2.05;;;21.70;77.50;;;;;;5013562;28;20034;-73
2021/09/27 13:21:06;;;;;;;4.30;1.92;;;21.60;78.00;;;;;;5012619;28;20053;-75
2021/09/27 13:23:50;;;;;;;4.43;1.58;;;21.60;78.70;;;;;;5016282;28;20025;-74
2021/09/27 13:26:23;;;;;;;5.40;1.67;;;21.50;79.20;;;;;;5016302;28;20029;-74